sensor_id;sensor_type;location;lat;lon;timestamp;P1;durP1;ratioP1;P2;durP2;ratioP2
19758;SDS011;10038;42.662;23.278;2023-02-28T00:00:17;20.60;;;12.20;;
19758;SDS011;10038;42.662;23.278;2023-02-28T00:02:44;24.83;;;13.03;;
19758;SDS011;10038;42.662;23.278;2023-02-28T00:05:12;20.57;;;12.23;;
19758;SDS011;10038;42.662;23.278;2023-02-28T00:07:40;24.53;;;11.77;;
19758;SDS011;10038;42.662;23.278;2023-02-28T00:10:08;23.87;;;13.07;;
19758;SDS011;10038;42.662;23.278;2023-02-28T00:12:35;23.47;;;12.83;;
19758;SDS011;10038;42.662;23.278;2023-02-28T00:15:02;21.50;;;12.27;;
19758;SDS011;10038;42.662;23.278;2023-02-28T00:17:31;16.03;;;9.30;;
19758;SDS011;10038;42.662;23.278;2023-02-28T00:19:57;19.10;;;11.23;;
19758;SDS011;10038;42.662;23.278;2023-02-28T00:22:29;14.93;;;7.30;;
19758;SDS011;10038;42.662;23.278;2023-02-28T00:24:57;11.50;;;7.53;;
19758;SDS011;10038;42.662;23.278;2023-02-28T00:27:24;15.50;;;6.93;;
19758;SDS011;10038;42.662;23.278;2023-02-28T00:29:50;9.70;;;5.37;;
19758;SDS011;10038;42.662;23.278;2023-02-28T00:32:19;10.87;;;6.00;;
19758;SDS011;10038;42.662;23.278;2023-02-28T00:34:45;9.87;;;6.13;;
19758;SDS011;10038;42.662;23.278;2023-02-28T00:37:12;9.43;;;5.10;;
19758;SDS011;10038;42.662;23.278;2023-02-28T00:39:38;11.17;;;4.90;;
19758;SDS011;10038;42.662;23.278;2023-02-28T00:42:07;7.40;;;4.60;;
19758;SDS011;10038;42.662;23.278;2023-02-28T00:44:33;12.97;;;6.30;;
19758;SDS011;10038;42.662;23.278;2023-02-28T00:47:00;13.50;;;7.10;;
19758;SDS011;10038;42.662;23.278;2023-02-28T00:49:27;12.33;;;7.13;;
19758;SDS011;10038;42.662;23.278;2023-02-28T00:51:54;16.27;;;8.63;;
19758;SDS011;10038;42.662;23.278;2023-02-28T00:54:21;27.10;;;12.87;;
19758;SDS011;10038;42.662;23.278;2023-02-28T00:56:47;24.13;;;14.43;;
19758;SDS011;10038;42.662;23.278;2023-02-28T00:59:15;26.60;;;15.07;;
19758;SDS011;10038;42.662;23.278;2023-02-28T01:01:43;25.87;;;14.00;;
19758;SDS011;10038;42.662;23.278;2023-02-28T01:04:10;22.90;;;12.47;;
19758;SDS011;10038;42.662;23.278;2023-02-28T01:06:37;19.13;;;12.23;;
19758;SDS011;10038;42.662;23.278;2023-02-28T01:09:04;18.90;;;11.17;;
19758;SDS011;10038;42.662;23.278;2023-02-28T01:11:31;23.53;;;10.43;;
19758;SDS011;10038;42.662;23.278;2023-02-28T01:13:57;23.03;;;12.27;;
19758;SDS011;10038;42.662;23.278;2023-02-28T01:16:25;18.83;;;10.33;;
19758;SDS011;10038;42.662;23.278;2023-02-28T01:18:52;21.27;;;12.20;;
19758;SDS011;10038;42.662;23.278;2023-02-28T01:21:19;29.63;;;13.50;;
19758;SDS011;10038;42.662;23.278;2023-02-28T01:23:45;27.37;;;13.70;;
19758;SDS011;10038;42.662;23.278;2023-02-28T01:26:13;27.97;;;15.80;;
19758;SDS011;10038;42.662;23.278;2023-02-28T01:28:40;29.10;;;16.70;;
19758;SDS011;10038;42.662;23.278;2023-02-28T01:31:07;35.40;;;17.80;;
19758;SDS011;10038;42.662;23.278;2023-02-28T01:33:35;36.63;;;18.07;;
19758;SDS011;10038;42.662;23.278;2023-02-28T01:36:03;39.77;;;18.70;;
19758;SDS011;10038;42.662;23.278;2023-02-28T01:38:30;35.43;;;17.60;;
19758;SDS011;10038;42.662;23.278;2023-02-28T01:40:56;39.77;;;19.57;;
19758;SDS011;10038;42.662;23.278;2023-02-28T01:43:24;39.13;;;17.40;;
19758;SDS011;10038;42.662;23.278;2023-02-28T01:45:51;40.03;;;20.57;;
19758;SDS011;10038;42.662;23.278;2023-02-28T01:48:17;37.57;;;19.00;;
19758;SDS011;10038;42.662;23.278;2023-02-28T01:50:46;46.63;;;21.00;;
19758;SDS011;10038;42.662;23.278;2023-02-28T01:53:14;44.67;;;18.77;;
19758;SDS011;10038;42.662;23.278;2023-02-28T01:55:42;43.50;;;17.57;;
19758;SDS011;10038;42.662;23.278;2023-02-28T01:58:09;43.00;;;21.90;;
19758;SDS011;10038;42.662;23.278;2023-02-28T02:00:36;43.37;;;19.17;;
19758;SDS011;10038;42.662;23.278;2023-02-28T02:03:05;37.47;;;21.23;;
19758;SDS011;10038;42.662;23.278;2023-02-28T02:05:32;43.03;;;20.30;;
19758;SDS011;10038;42.662;23.278;2023-02-28T02:08:02;44.00;;;20.60;;
19758;SDS011;10038;42.662;23.278;2023-02-28T02:10:31;43.50;;;20.27;;
19758;SDS011;10038;42.662;23.278;2023-02-28T02:15:40;40.63;;;18.67;;
19758;SDS011;10038;42.662;23.278;2023-02-28T02:18:09;58.57;;;21.07;;
19758;SDS011;10038;42.662;23.278;2023-02-28T02:20:44;47.67;;;21.50;;
19758;SDS011;10038;42.662;23.278;2023-02-28T02:26:03;42.83;;;20.00;;
19758;SDS011;10038;42.662;23.278;2023-02-28T02:28:40;42.30;;;21.43;;
19758;SDS011;10038;42.662;23.278;2023-02-28T02:31:23;45.47;;;20.23;;
19758;SDS011;10038;42.662;23.278;2023-02-28T02:34:10;42.73;;;21.03;;
19758;SDS011;10038;42.662;23.278;2023-02-28T02:36:42;39.87;;;19.67;;
19758;SDS011;10038;42.662;23.278;2023-02-28T02:39:15;43.93;;;19.40;;
19758;SDS011;10038;42.662;23.278;2023-02-28T02:41:45;54.30;;;20.47;;
19758;SDS011;10038;42.662;23.278;2023-02-28T02:44:13;51.97;;;20.73;;
19758;SDS011;10038;42.662;23.278;2023-02-28T02:46:42;49.23;;;20.07;;
19758;SDS011;10038;42.662;23.278;2023-02-28T02:49:12;52.93;;;20.63;;
19758;SDS011;10038;42.662;23.278;2023-02-28T02:51:39;43.27;;;17.57;;
19758;SDS011;10038;42.662;23.278;2023-02-28T02:54:08;51.33;;;20.37;;
19758;SDS011;10038;42.662;23.278;2023-02-28T02:56:35;38.17;;;15.07;;
19758;SDS011;10038;42.662;23.278;2023-02-28T02:59:02;51.03;;;19.47;;
19758;SDS011;10038;42.662;23.278;2023-02-28T03:01:30;45.40;;;18.77;;
19758;SDS011;10038;42.662;23.278;2023-02-28T03:03:58;48.83;;;19.47;;
19758;SDS011;10038;42.662;23.278;2023-02-28T03:06:27;43.97;;;19.43;;
19758;SDS011;10038;42.662;23.278;2023-02-28T03:08:54;31.30;;;16.60;;
19758;SDS011;10038;42.662;23.278;2023-02-28T03:11:20;31.63;;;15.97;;
19758;SDS011;10038;42.662;23.278;2023-02-28T03:13:55;49.40;;;19.83;;
19758;SDS011;10038;42.662;23.278;2023-02-28T03:16:29;53.67;;;18.80;;
19758;SDS011;10038;42.662;23.278;2023-02-28T03:19:01;51.63;;;19.60;;
19758;SDS011;10038;42.662;23.278;2023-02-28T03:21:31;47.27;;;19.67;;
19758;SDS011;10038;42.662;23.278;2023-02-28T03:23:59;54.07;;;21.10;;
19758;SDS011;10038;42.662;23.278;2023-02-28T03:26:29;51.37;;;19.40;;
19758;SDS011;10038;42.662;23.278;2023-02-28T03:29:00;45.37;;;18.57;;
19758;SDS011;10038;42.662;23.278;2023-02-28T03:31:29;41.93;;;18.10;;
19758;SDS011;10038;42.662;23.278;2023-02-28T03:33:58;46.70;;;21.10;;
19758;SDS011;10038;42.662;23.278;2023-02-28T03:36:26;45.73;;;21.80;;
19758;SDS011;10038;42.662;23.278;2023-02-28T03:38:57;56.77;;;22.57;;
19758;SDS011;10038;42.662;23.278;2023-02-28T03:41:27;53.80;;;24.50;;
19758;SDS011;10038;42.662;23.278;2023-02-28T03:43:56;57.57;;;24.30;;
19758;SDS011;10038;42.662;23.278;2023-02-28T03:46:25;46.43;;;21.30;;
19758;SDS011;10038;42.662;23.278;2023-02-28T03:48:53;49.47;;;21.57;;
19758;SDS011;10038;42.662;23.278;2023-02-28T03:51:22;43.20;;;19.00;;
19758;SDS011;10038;42.662;23.278;2023-02-28T03:53:50;42.33;;;19.77;;
19758;SDS011;10038;42.662;23.278;2023-02-28T03:56:20;42.40;;;18.50;;
19758;SDS011;10038;42.662;23.278;2023-02-28T03:58:49;52.53;;;19.57;;
19758;SDS011;10038;42.662;23.278;2023-02-28T04:01:18;43.17;;;19.20;;
19758;SDS011;10038;42.662;23.278;2023-02-28T04:03:46;45.60;;;19.27;;
19758;SDS011;10038;42.662;23.278;2023-02-28T04:06:14;36.63;;;17.40;;
19758;SDS011;10038;42.662;23.278;2023-02-28T04:08:41;39.77;;;16.77;;
19758;SDS011;10038;42.662;23.278;2023-02-28T04:11:12;37.17;;;17.37;;
19758;SDS011;10038;42.662;23.278;2023-02-28T04:13:42;35.07;;;17.33;;
19758;SDS011;10038;42.662;23.278;2023-02-28T04:16:09;42.73;;;17.63;;
19758;SDS011;10038;42.662;23.278;2023-02-28T04:18:37;40.43;;;18.27;;
19758;SDS011;10038;42.662;23.278;2023-02-28T04:21:04;41.30;;;18.40;;
19758;SDS011;10038;42.662;23.278;2023-02-28T04:23:30;40.30;;;17.33;;
19758;SDS011;10038;42.662;23.278;2023-02-28T04:25:57;36.70;;;17.83;;
19758;SDS011;10038;42.662;23.278;2023-02-28T04:28:23;41.13;;;18.37;;
19758;SDS011;10038;42.662;23.278;2023-02-28T04:30:55;34.70;;;15.80;;
19758;SDS011;10038;42.662;23.278;2023-02-28T04:33:21;36.13;;;18.20;;
19758;SDS011;10038;42.662;23.278;2023-02-28T04:35:48;38.37;;;17.50;;
19758;SDS011;10038;42.662;23.278;2023-02-28T04:38:14;37.83;;;17.77;;
19758;SDS011;10038;42.662;23.278;2023-02-28T04:40:41;37.80;;;18.30;;
19758;SDS011;10038;42.662;23.278;2023-02-28T04:43:07;39.47;;;16.97;;
19758;SDS011;10038;42.662;23.278;2023-02-28T04:45:34;43.83;;;17.80;;
19758;SDS011;10038;42.662;23.278;2023-02-28T04:48:02;38.90;;;17.00;;
19758;SDS011;10038;42.662;23.278;2023-02-28T04:50:29;36.07;;;17.50;;
19758;SDS011;10038;42.662;23.278;2023-02-28T04:52:56;35.43;;;17.40;;
19758;SDS011;10038;42.662;23.278;2023-02-28T04:55:22;37.47;;;16.73;;
19758;SDS011;10038;42.662;23.278;2023-02-28T04:57:49;45.77;;;19.10;;
19758;SDS011;10038;42.662;23.278;2023-02-28T05:00:15;34.93;;;17.67;;
19758;SDS011;10038;42.662;23.278;2023-02-28T05:02:42;38.77;;;17.53;;
19758;SDS011;10038;42.662;23.278;2023-02-28T05:05:10;39.10;;;17.00;;
19758;SDS011;10038;42.662;23.278;2023-02-28T05:07:37;36.37;;;15.70;;
19758;SDS011;10038;42.662;23.278;2023-02-28T05:10:03;31.93;;;15.00;;
19758;SDS011;10038;42.662;23.278;2023-02-28T05:12:30;28.80;;;14.93;;
19758;SDS011;10038;42.662;23.278;2023-02-28T05:14:56;32.53;;;15.23;;
19758;SDS011;10038;42.662;23.278;2023-02-28T05:17:23;29.50;;;13.50;;
19758;SDS011;10038;42.662;23.278;2023-02-28T05:19:49;29.73;;;14.67;;
19758;SDS011;10038;42.662;23.278;2023-02-28T05:22:17;43.43;;;18.30;;
19758;SDS011;10038;42.662;23.278;2023-02-28T05:24:43;35.80;;;15.47;;
19758;SDS011;10038;42.662;23.278;2023-02-28T05:27:10;31.37;;;15.13;;
19758;SDS011;10038;42.662;23.278;2023-02-28T05:29:37;33.57;;;15.73;;
19758;SDS011;10038;42.662;23.278;2023-02-28T05:32:07;33.23;;;15.30;;
19758;SDS011;10038;42.662;23.278;2023-02-28T05:34:33;32.83;;;15.97;;
19758;SDS011;10038;42.662;23.278;2023-02-28T05:37:00;37.43;;;14.00;;
19758;SDS011;10038;42.662;23.278;2023-02-28T05:39:28;30.97;;;15.10;;
19758;SDS011;10038;42.662;23.278;2023-02-28T05:41:54;29.87;;;13.07;;
19758;SDS011;10038;42.662;23.278;2023-02-28T05:44:21;35.30;;;15.03;;
19758;SDS011;10038;42.662;23.278;2023-02-28T05:46:47;28.87;;;13.30;;
19758;SDS011;10038;42.662;23.278;2023-02-28T05:49:14;30.70;;;14.17;;
19758;SDS011;10038;42.662;23.278;2023-02-28T05:51:40;32.40;;;13.40;;
19758;SDS011;10038;42.662;23.278;2023-02-28T05:54:07;29.03;;;14.67;;
19758;SDS011;10038;42.662;23.278;2023-02-28T05:56:34;31.63;;;15.50;;
19758;SDS011;10038;42.662;23.278;2023-02-28T05:59:04;25.73;;;14.03;;
19758;SDS011;10038;42.662;23.278;2023-02-28T06:01:31;36.00;;;14.47;;
19758;SDS011;10038;42.662;23.278;2023-02-28T06:03:58;33.47;;;15.10;;
19758;SDS011;10038;42.662;23.278;2023-02-28T06:06:25;34.47;;;14.30;;
19758;SDS011;10038;42.662;23.278;2023-02-28T06:08:51;39.27;;;15.63;;
19758;SDS011;10038;42.662;23.278;2023-02-28T06:11:18;27.70;;;13.90;;
19758;SDS011;10038;42.662;23.278;2023-02-28T06:13:46;36.77;;;15.63;;
19758;SDS011;10038;42.662;23.278;2023-02-28T06:16:13;31.63;;;16.97;;
19758;SDS011;10038;42.662;23.278;2023-02-28T06:18:39;37.50;;;16.30;;
19758;SDS011;10038;42.662;23.278;2023-02-28T06:21:06;36.33;;;15.90;;
19758;SDS011;10038;42.662;23.278;2023-02-28T06:23:33;33.90;;;16.43;;
19758;SDS011;10038;42.662;23.278;2023-02-28T06:26:00;37.80;;;16.93;;
19758;SDS011;10038;42.662;23.278;2023-02-28T06:28:27;36.03;;;16.00;;
19758;SDS011;10038;42.662;23.278;2023-02-28T06:30:54;33.27;;;16.40;;
19758;SDS011;10038;42.662;23.278;2023-02-28T06:33:21;32.70;;;16.70;;
19758;SDS011;10038;42.662;23.278;2023-02-28T06:35:49;35.40;;;15.17;;
19758;SDS011;10038;42.662;23.278;2023-02-28T06:38:16;39.87;;;17.53;;
19758;SDS011;10038;42.662;23.278;2023-02-28T06:40:43;37.90;;;18.37;;
19758;SDS011;10038;42.662;23.278;2023-02-28T06:43:09;38.93;;;17.87;;
19758;SDS011;10038;42.662;23.278;2023-02-28T06:45:40;35.43;;;18.27;;
19758;SDS011;10038;42.662;23.278;2023-02-28T06:48:08;34.70;;;18.63;;
19758;SDS011;10038;42.662;23.278;2023-02-28T06:50:35;36.03;;;17.87;;
19758;SDS011;10038;42.662;23.278;2023-02-28T06:53:02;37.67;;;17.93;;
19758;SDS011;10038;42.662;23.278;2023-02-28T06:55:28;46.83;;;20.33;;
19758;SDS011;10038;42.662;23.278;2023-02-28T06:57:54;36.17;;;18.27;;
19758;SDS011;10038;42.662;23.278;2023-02-28T07:00:21;39.10;;;19.30;;
19758;SDS011;10038;42.662;23.278;2023-02-28T07:02:47;37.97;;;18.20;;
19758;SDS011;10038;42.662;23.278;2023-02-28T07:05:15;40.67;;;20.37;;
19758;SDS011;10038;42.662;23.278;2023-02-28T07:07:42;38.80;;;21.40;;
19758;SDS011;10038;42.662;23.278;2023-02-28T07:10:11;45.43;;;18.93;;
19758;SDS011;10038;42.662;23.278;2023-02-28T07:12:39;45.37;;;21.00;;
19758;SDS011;10038;42.662;23.278;2023-02-28T07:15:06;36.27;;;18.83;;
19758;SDS011;10038;42.662;23.278;2023-02-28T07:17:33;48.30;;;20.20;;
19758;SDS011;10038;42.662;23.278;2023-02-28T07:19:59;42.00;;;20.87;;
19758;SDS011;10038;42.662;23.278;2023-02-28T07:22:27;47.60;;;20.67;;
19758;SDS011;10038;42.662;23.278;2023-02-28T07:24:54;38.60;;;20.10;;
19758;SDS011;10038;42.662;23.278;2023-02-28T07:27:21;48.27;;;19.63;;
19758;SDS011;10038;42.662;23.278;2023-02-28T07:29:50;37.33;;;19.40;;
19758;SDS011;10038;42.662;23.278;2023-02-28T07:32:17;45.83;;;19.30;;
19758;SDS011;10038;42.662;23.278;2023-02-28T07:34:43;53.67;;;26.10;;
19758;SDS011;10038;42.662;23.278;2023-02-28T07:37:10;66.80;;;28.00;;
19758;SDS011;10038;42.662;23.278;2023-02-28T07:39:38;57.80;;;27.70;;
19758;SDS011;10038;42.662;23.278;2023-02-28T07:42:06;70.77;;;30.43;;
19758;SDS011;10038;42.662;23.278;2023-02-28T07:44:35;76.83;;;30.00;;
19758;SDS011;10038;42.662;23.278;2023-02-28T07:47:05;68.70;;;32.17;;
19758;SDS011;10038;42.662;23.278;2023-02-28T07:49:32;57.00;;;29.30;;
19758;SDS011;10038;42.662;23.278;2023-02-28T07:51:58;68.87;;;29.63;;
19758;SDS011;10038;42.662;23.278;2023-02-28T07:54:25;56.87;;;30.47;;
19758;SDS011;10038;42.662;23.278;2023-02-28T07:56:53;69.23;;;28.70;;
19758;SDS011;10038;42.662;23.278;2023-02-28T07:59:19;59.20;;;28.37;;
19758;SDS011;10038;42.662;23.278;2023-02-28T08:01:45;71.40;;;29.90;;
19758;SDS011;10038;42.662;23.278;2023-02-28T08:04:14;68.10;;;30.07;;
19758;SDS011;10038;42.662;23.278;2023-02-28T08:06:41;55.37;;;27.33;;
19758;SDS011;10038;42.662;23.278;2023-02-28T08:09:07;56.13;;;27.07;;
19758;SDS011;10038;42.662;23.278;2023-02-28T08:11:34;55.40;;;28.30;;
19758;SDS011;10038;42.662;23.278;2023-02-28T08:14:02;56.10;;;25.73;;
19758;SDS011;10038;42.662;23.278;2023-02-28T08:16:29;56.73;;;26.40;;
19758;SDS011;10038;42.662;23.278;2023-02-28T08:18:55;53.43;;;28.37;;
19758;SDS011;10038;42.662;23.278;2023-02-28T08:21:22;70.40;;;29.93;;
19758;SDS011;10038;42.662;23.278;2023-02-28T08:23:49;65.70;;;29.90;;
19758;SDS011;10038;42.662;23.278;2023-02-28T08:26:15;59.93;;;27.63;;
19758;SDS011;10038;42.662;23.278;2023-02-28T08:28:42;59.23;;;27.93;;
19758;SDS011;10038;42.662;23.278;2023-02-28T08:31:11;55.73;;;27.63;;
19758;SDS011;10038;42.662;23.278;2023-02-28T08:33:38;53.13;;;27.67;;
19758;SDS011;10038;42.662;23.278;2023-02-28T08:36:06;53.20;;;25.23;;
19758;SDS011;10038;42.662;23.278;2023-02-28T08:38:32;58.70;;;25.20;;
19758;SDS011;10038;42.662;23.278;2023-02-28T08:40:59;55.77;;;25.77;;
19758;SDS011;10038;42.662;23.278;2023-02-28T08:43:26;53.10;;;24.43;;
19758;SDS011;10038;42.662;23.278;2023-02-28T08:45:52;65.47;;;29.17;;
19758;SDS011;10038;42.662;23.278;2023-02-28T08:48:20;69.67;;;27.00;;
19758;SDS011;10038;42.662;23.278;2023-02-28T08:50:54;64.43;;;27.10;;
19758;SDS011;10038;42.662;23.278;2023-02-28T08:53:20;69.53;;;27.50;;
19758;SDS011;10038;42.662;23.278;2023-02-28T08:55:47;67.60;;;28.07;;
19758;SDS011;10038;42.662;23.278;2023-02-28T08:58:21;65.13;;;29.20;;
19758;SDS011;10038;42.662;23.278;2023-02-28T09:00:48;59.90;;;28.10;;
19758;SDS011;10038;42.662;23.278;2023-02-28T09:03:15;69.77;;;26.97;;
19758;SDS011;10038;42.662;23.278;2023-02-28T09:05:43;57.77;;;28.90;;
19758;SDS011;10038;42.662;23.278;2023-02-28T09:08:17;62.80;;;27.83;;
19758;SDS011;10038;42.662;23.278;2023-02-28T09:10:43;71.20;;;25.80;;
19758;SDS011;10038;42.662;23.278;2023-02-28T09:13:10;63.93;;;27.23;;
19758;SDS011;10038;42.662;23.278;2023-02-28T09:15:36;65.20;;;28.50;;
19758;SDS011;10038;42.662;23.278;2023-02-28T09:18:03;62.17;;;27.93;;
19758;SDS011;10038;42.662;23.278;2023-02-28T09:20:33;57.03;;;25.63;;
19758;SDS011;10038;42.662;23.278;2023-02-28T09:23:01;66.70;;;26.77;;
19758;SDS011;10038;42.662;23.278;2023-02-28T09:25:28;48.70;;;26.00;;
19758;SDS011;10038;42.662;23.278;2023-02-28T09:27:54;55.20;;;25.77;;
19758;SDS011;10038;42.662;23.278;2023-02-28T09:30:21;60.70;;;26.40;;
19758;SDS011;10038;42.662;23.278;2023-02-28T09:32:47;57.63;;;29.83;;
19758;SDS011;10038;42.662;23.278;2023-02-28T09:35:17;54.10;;;25.83;;
19758;SDS011;10038;42.662;23.278;2023-02-28T09:37:43;50.60;;;26.03;;
19758;SDS011;10038;42.662;23.278;2023-02-28T09:40:12;56.27;;;26.93;;
19758;SDS011;10038;42.662;23.278;2023-02-28T09:42:39;48.00;;;25.50;;
19758;SDS011;10038;42.662;23.278;2023-02-28T09:45:21;60.03;;;27.43;;
19758;SDS011;10038;42.662;23.278;2023-02-28T09:47:48;53.97;;;26.90;;
19758;SDS011;10038;42.662;23.278;2023-02-28T09:50:17;63.73;;;31.10;;
19758;SDS011;10038;42.662;23.278;2023-02-28T09:52:44;56.30;;;26.87;;
19758;SDS011;10038;42.662;23.278;2023-02-28T09:55:28;50.20;;;24.10;;
19758;SDS011;10038;42.662;23.278;2023-02-28T09:57:55;54.10;;;26.37;;
19758;SDS011;10038;42.662;23.278;2023-02-28T10:00:26;48.63;;;25.20;;
19758;SDS011;10038;42.662;23.278;2023-02-28T10:03:06;48.57;;;23.60;;
19758;SDS011;10038;42.662;23.278;2023-02-28T10:05:37;48.87;;;26.20;;
19758;SDS011;10038;42.662;23.278;2023-02-28T10:08:10;46.00;;;24.30;;
19758;SDS011;10038;42.662;23.278;2023-02-28T10:10:40;50.27;;;25.00;;
19758;SDS011;10038;42.662;23.278;2023-02-28T10:13:12;51.07;;;23.33;;
19758;SDS011;10038;42.662;23.278;2023-02-28T10:15:42;55.50;;;24.97;;
19758;SDS011;10038;42.662;23.278;2023-02-28T10:18:12;54.83;;;23.50;;
19758;SDS011;10038;42.662;23.278;2023-02-28T10:20:39;56.40;;;27.23;;
19758;SDS011;10038;42.662;23.278;2023-02-28T10:23:09;54.70;;;25.10;;
19758;SDS011;10038;42.662;23.278;2023-02-28T10:25:38;53.00;;;24.93;;
19758;SDS011;10038;42.662;23.278;2023-02-28T10:28:15;45.47;;;24.10;;
19758;SDS011;10038;42.662;23.278;2023-02-28T10:30:43;49.10;;;24.13;;
19758;SDS011;10038;42.662;23.278;2023-02-28T10:33:15;47.90;;;23.20;;
19758;SDS011;10038;42.662;23.278;2023-02-28T10:35:44;49.07;;;26.40;;
19758;SDS011;10038;42.662;23.278;2023-02-28T10:38:12;57.43;;;23.47;;
19758;SDS011;10038;42.662;23.278;2023-02-28T10:40:40;46.90;;;25.90;;
19758;SDS011;10038;42.662;23.278;2023-02-28T10:43:16;45.60;;;23.80;;
19758;SDS011;10038;42.662;23.278;2023-02-28T10:45:51;48.57;;;21.33;;
19758;SDS011;10038;42.662;23.278;2023-02-28T10:48:26;26.30;;;14.03;;
19758;SDS011;10038;42.662;23.278;2023-02-28T10:50:53;19.03;;;10.10;;
19758;SDS011;10038;42.662;23.278;2023-02-28T10:53:24;18.90;;;10.40;;
19758;SDS011;10038;42.662;23.278;2023-02-28T10:55:57;21.83;;;10.97;;
19758;SDS011;10038;42.662;23.278;2023-02-28T10:58:24;24.63;;;9.67;;
19758;SDS011;10038;42.662;23.278;2023-02-28T11:00:53;14.87;;;8.13;;
19758;SDS011;10038;42.662;23.278;2023-02-28T11:03:24;22.50;;;9.50;;
19758;SDS011;10038;42.662;23.278;2023-02-28T11:05:51;14.47;;;8.47;;
19758;SDS011;10038;42.662;23.278;2023-02-28T11:08:17;17.67;;;9.00;;
19758;SDS011;10038;42.662;23.278;2023-02-28T11:10:44;21.80;;;9.50;;
19758;SDS011;10038;42.662;23.278;2023-02-28T11:13:15;23.13;;;8.27;;
19758;SDS011;10038;42.662;23.278;2023-02-28T11:15:49;22.33;;;9.60;;
19758;SDS011;10038;42.662;23.278;2023-02-28T11:18:21;21.97;;;9.10;;
19758;SDS011;10038;42.662;23.278;2023-02-28T11:20:49;20.00;;;10.63;;
19758;SDS011;10038;42.662;23.278;2023-02-28T11:23:16;16.10;;;7.90;;
19758;SDS011;10038;42.662;23.278;2023-02-28T11:25:46;23.70;;;9.50;;
19758;SDS011;10038;42.662;23.278;2023-02-28T11:28:23;20.83;;;9.90;;
19758;SDS011;10038;42.662;23.278;2023-02-28T11:30:59;21.23;;;9.53;;
19758;SDS011;10038;42.662;23.278;2023-02-28T11:33:29;19.43;;;10.10;;
19758;SDS011;10038;42.662;23.278;2023-02-28T11:35:57;25.40;;;12.30;;
19758;SDS011;10038;42.662;23.278;2023-02-28T11:38:27;23.23;;;10.37;;
19758;SDS011;10038;42.662;23.278;2023-02-28T11:41:02;22.87;;;10.33;;
19758;SDS011;10038;42.662;23.278;2023-02-28T11:43:34;21.57;;;10.07;;
19758;SDS011;10038;42.662;23.278;2023-02-28T11:46:06;31.83;;;11.37;;
19758;SDS011;10038;42.662;23.278;2023-02-28T11:48:40;22.43;;;9.43;;
19758;SDS011;10038;42.662;23.278;2023-02-28T11:51:12;20.37;;;9.77;;
19758;SDS011;10038;42.662;23.278;2023-02-28T11:53:59;27.93;;;10.20;;
19758;SDS011;10038;42.662;23.278;2023-02-28T11:56:29;17.93;;;10.50;;
19758;SDS011;10038;42.662;23.278;2023-02-28T11:59:07;19.60;;;12.27;;
19758;SDS011;10038;42.662;23.278;2023-02-28T12:01:44;22.07;;;10.77;;
19758;SDS011;10038;42.662;23.278;2023-02-28T12:04:21;17.20;;;10.13;;
19758;SDS011;10038;42.662;23.278;2023-02-28T12:06:55;21.47;;;11.73;;
19758;SDS011;10038;42.662;23.278;2023-02-28T12:09:37;18.53;;;11.60;;
19758;SDS011;10038;42.662;23.278;2023-02-28T12:12:07;21.10;;;11.37;;
19758;SDS011;10038;42.662;23.278;2023-02-28T12:14:48;18.83;;;9.30;;
19758;SDS011;10038;42.662;23.278;2023-02-28T12:17:20;28.90;;;11.77;;
19758;SDS011;10038;42.662;23.278;2023-02-28T12:19:51;23.20;;;10.70;;
19758;SDS011;10038;42.662;23.278;2023-02-28T12:22:29;20.17;;;10.97;;
19758;SDS011;10038;42.662;23.278;2023-02-28T12:25:18;23.33;;;10.90;;
19758;SDS011;10038;42.662;23.278;2023-02-28T12:27:50;23.70;;;10.77;;
19758;SDS011;10038;42.662;23.278;2023-02-28T12:30:19;17.70;;;10.10;;
19758;SDS011;10038;42.662;23.278;2023-02-28T12:32:48;20.50;;;10.43;;
19758;SDS011;10038;42.662;23.278;2023-02-28T12:35:19;22.30;;;11.23;;
19758;SDS011;10038;42.662;23.278;2023-02-28T12:37:51;25.97;;;11.17;;
19758;SDS011;10038;42.662;23.278;2023-02-28T12:40:20;24.83;;;12.43;;
19758;SDS011;10038;42.662;23.278;2023-02-28T12:42:49;32.10;;;11.30;;
19758;SDS011;10038;42.662;23.278;2023-02-28T12:45:19;17.90;;;9.20;;
19758;SDS011;10038;42.662;23.278;2023-02-28T12:47:48;22.93;;;11.10;;
19758;SDS011;10038;42.662;23.278;2023-02-28T12:50:16;25.70;;;9.93;;
19758;SDS011;10038;42.662;23.278;2023-02-28T12:52:47;23.87;;;12.00;;
19758;SDS011;10038;42.662;23.278;2023-02-28T12:55:19;15.83;;;9.67;;
19758;SDS011;10038;42.662;23.278;2023-02-28T12:57:52;25.57;;;10.00;;
19758;SDS011;10038;42.662;23.278;2023-02-28T13:00:25;17.43;;;10.63;;
19758;SDS011;10038;42.662;23.278;2023-02-28T13:05:58;23.60;;;9.53;;
19758;SDS011;10038;42.662;23.278;2023-02-28T13:11:26;22.90;;;9.83;;
19758;SDS011;10038;42.662;23.278;2023-02-28T13:14:00;18.87;;;9.73;;
19758;SDS011;10038;42.662;23.278;2023-02-28T13:16:51;26.17;;;11.17;;
19758;SDS011;10038;42.662;23.278;2023-02-28T13:19:19;19.33;;;9.83;;
19758;SDS011;10038;42.662;23.278;2023-02-28T13:21:48;19.70;;;9.50;;
19758;SDS011;10038;42.662;23.278;2023-02-28T13:24:40;22.80;;;10.07;;
19758;SDS011;10038;42.662;23.278;2023-02-28T13:29:53;18.80;;;8.80;;
19758;SDS011;10038;42.662;23.278;2023-02-28T13:32:30;22.40;;;9.50;;
19758;SDS011;10038;42.662;23.278;2023-02-28T13:37:43;20.70;;;9.87;;
19758;SDS011;10038;42.662;23.278;2023-02-28T13:40:27;17.27;;;8.17;;
19758;SDS011;10038;42.662;23.278;2023-02-28T13:42:54;21.10;;;9.30;;
19758;SDS011;10038;42.662;23.278;2023-02-28T13:45:23;14.33;;;7.67;;
19758;SDS011;10038;42.662;23.278;2023-02-28T13:47:53;14.83;;;7.13;;
19758;SDS011;10038;42.662;23.278;2023-02-28T13:50:24;20.47;;;8.07;;
19758;SDS011;10038;42.662;23.278;2023-02-28T13:52:57;16.80;;;7.17;;
19758;SDS011;10038;42.662;23.278;2023-02-28T13:55:27;17.30;;;7.07;;
19758;SDS011;10038;42.662;23.278;2023-02-28T13:58:00;16.83;;;7.93;;
19758;SDS011;10038;42.662;23.278;2023-02-28T14:00:39;15.93;;;7.20;;
19758;SDS011;10038;42.662;23.278;2023-02-28T14:03:14;17.80;;;8.20;;
19758;SDS011;10038;42.662;23.278;2023-02-28T14:05:44;14.50;;;5.97;;
19758;SDS011;10038;42.662;23.278;2023-02-28T14:08:17;17.63;;;9.07;;
19758;SDS011;10038;42.662;23.278;2023-02-28T14:10:46;17.80;;;8.70;;
19758;SDS011;10038;42.662;23.278;2023-02-28T14:13:17;21.57;;;7.40;;
19758;SDS011;10038;42.662;23.278;2023-02-28T14:16:04;18.60;;;7.97;;
19758;SDS011;10038;42.662;23.278;2023-02-28T14:18:32;16.33;;;7.53;;
19758;SDS011;10038;42.662;23.278;2023-02-28T14:21:01;20.43;;;8.23;;
19758;SDS011;10038;42.662;23.278;2023-02-28T14:23:34;18.97;;;7.00;;
19758;SDS011;10038;42.662;23.278;2023-02-28T14:26:06;17.70;;;8.50;;
19758;SDS011;10038;42.662;23.278;2023-02-28T14:28:42;18.53;;;8.13;;
19758;SDS011;10038;42.662;23.278;2023-02-28T14:31:12;16.07;;;7.50;;
19758;SDS011;10038;42.662;23.278;2023-02-28T14:33:43;15.23;;;7.40;;
19758;SDS011;10038;42.662;23.278;2023-02-28T14:36:16;18.77;;;8.70;;
19758;SDS011;10038;42.662;23.278;2023-02-28T14:38:49;21.53;;;8.30;;